createdAt,value
2022-10-31T00:01:23.573Z,2.60
2022-10-31T00:03:50.268Z,2.05
2022-10-31T00:06:20.164Z,2.25
2022-10-31T00:08:47.855Z,2.72
2022-10-31T00:11:14.415Z,2.60
2022-10-31T00:13:40.959Z,2.08
2022-10-31T00:16:15.122Z,2.25
2022-10-31T00:18:41.643Z,2.50
2022-10-31T00:21:08.206Z,2.97
2022-10-31T00:23:34.743Z,2.03
2022-10-31T00:26:02.872Z,2.17
2022-10-31T00:28:31.352Z,2.67
2022-10-31T00:31:05.563Z,2.83
2022-10-31T00:33:34.359Z,1.80
2022-10-31T00:36:00.927Z,2.17
2022-10-31T00:38:27.487Z,2.05
2022-10-31T00:40:54.025Z,1.58
2022-10-31T00:43:20.568Z,1.85
2022-10-31T00:45:47.251Z,2.00
2022-10-31T00:48:13.839Z,1.98
2022-10-31T00:50:40.813Z,2.03
2022-10-31T00:53:07.406Z,2.10
2022-10-31T00:55:34.000Z,1.63
2022-10-31T00:58:00.819Z,2.55
2022-10-31T01:00:27.706Z,1.80
2022-10-31T01:02:54.255Z,1.88
2022-10-31T01:05:21.150Z,1.58
2022-10-31T01:07:47.682Z,2.08
2022-10-31T01:10:14.314Z,1.88
2022-10-31T01:12:45.479Z,1.55
2022-10-31T01:15:13.752Z,2.45
2022-10-31T01:17:40.402Z,2.05
2022-10-31T01:20:08.841Z,2.25
2022-10-31T01:22:35.402Z,1.60
2022-10-31T01:25:01.931Z,2.10
2022-10-31T01:27:28.483Z,2.95
2022-10-31T01:29:55.027Z,2.28
2022-10-31T01:32:21.577Z,1.77
2022-10-31T01:34:48.125Z,2.08
2022-10-31T01:37:14.648Z,1.75
2022-10-31T01:39:41.208Z,2.05
2022-10-31T01:42:07.772Z,1.88
2022-10-31T01:44:34.222Z,1.42
2022-10-31T01:47:05.943Z,2.03
2022-10-31T01:50:12.283Z,2.20
2022-10-31T01:52:42.357Z,1.48
2022-10-31T01:55:33.716Z,1.65
2022-10-31T01:58:04.015Z,1.98
2022-10-31T02:00:31.378Z,2.15
2022-10-31T02:02:58.344Z,2.13
2022-10-31T02:05:27.306Z,2.10
2022-10-31T02:08:01.157Z,2.10
2022-10-31T02:10:27.717Z,1.65
2022-10-31T02:12:56.749Z,1.45
2022-10-31T02:15:23.563Z,1.50
2022-10-31T02:17:50.379Z,2.35
2022-10-31T02:20:22.102Z,1.90
2022-10-31T02:23:22.586Z,2.15
2022-10-31T02:26:26.622Z,1.80
2022-10-31T02:29:01.992Z,1.88
2022-10-31T02:31:55.555Z,1.50
2022-10-31T02:34:34.191Z,1.60
2022-10-31T02:37:42.917Z,1.60
2022-10-31T02:40:22.230Z,1.60
2022-10-31T02:43:00.795Z,2.10
2022-10-31T02:45:38.550Z,1.55
2022-10-31T02:48:11.221Z,1.83
2022-10-31T02:50:42.042Z,1.30
2022-10-31T02:53:08.607Z,1.85
2022-10-31T02:55:35.102Z,2.28
2022-10-31T02:58:11.551Z,1.65
2022-10-31T03:00:53.626Z,0.95
2022-10-31T03:03:25.883Z,1.40
2022-10-31T03:06:18.622Z,1.75
2022-10-31T03:08:51.966Z,1.42
2022-10-31T03:11:19.735Z,1.95
2022-10-31T03:13:53.123Z,1.88
2022-10-31T03:18:56.991Z,1.70
2022-10-31T03:21:46.511Z,2.05
2022-10-31T03:24:13.781Z,1.80
2022-10-31T03:26:44.116Z,1.30
2022-10-31T03:29:14.458Z,1.83
2022-10-31T03:31:45.991Z,1.70
2022-10-31T03:34:13.892Z,1.60
2022-10-31T03:36:41.262Z,1.27
2022-10-31T03:39:10.359Z,1.40
2022-10-31T03:41:40.274Z,1.60
2022-10-31T03:44:10.934Z,1.55
2022-10-31T03:46:37.639Z,1.70
2022-10-31T03:49:04.545Z,1.83
2022-10-31T03:52:00.026Z,1.45
2022-10-31T03:54:26.508Z,1.48
2022-10-31T03:57:09.707Z,1.30
2022-10-31T03:59:46.285Z,1.52
2022-10-31T04:02:16.139Z,1.50
2022-10-31T04:04:45.133Z,1.45
2022-10-31T04:07:12.074Z,1.52
2022-10-31T04:09:43.670Z,1.90
2022-10-31T04:12:15.987Z,1.33
2022-10-31T04:14:45.154Z,1.20
2022-10-31T04:17:14.827Z,1.40
2022-10-31T04:19:41.407Z,1.38
2022-10-31T04:22:08.039Z,1.23
2022-10-31T04:24:34.643Z,1.40
2022-10-31T04:27:01.192Z,1.05
2022-10-31T04:29:27.726Z,1.55
2022-10-31T04:31:54.250Z,1.70
2022-10-31T04:34:20.781Z,1.40
2022-10-31T04:36:47.307Z,1.45
2022-10-31T04:39:13.850Z,1.67
2022-10-31T04:41:40.393Z,1.65
2022-10-31T04:44:06.927Z,1.92
2022-10-31T04:46:33.471Z,1.10
2022-10-31T04:49:00.014Z,1.42
2022-10-31T04:51:26.556Z,1.40
2022-10-31T04:53:53.104Z,1.15
2022-10-31T04:56:19.690Z,1.35
2022-10-31T04:58:46.258Z,1.08
2022-10-31T05:01:13.491Z,1.30
2022-10-31T05:03:40.601Z,1.55
2022-10-31T05:06:07.807Z,1.73
2022-10-31T05:08:34.359Z,1.27
2022-10-31T05:11:04.427Z,1.75
2022-10-31T05:13:31.951Z,1.20
2022-10-31T05:15:58.531Z,1.17
2022-10-31T05:18:25.123Z,1.50
2022-10-31T05:20:51.685Z,1.17
2022-10-31T05:23:18.238Z,0.90
2022-10-31T05:25:44.786Z,1.92
2022-10-31T05:28:11.343Z,1.27
2022-10-31T05:30:37.963Z,1.10
2022-10-31T05:33:04.624Z,1.77
2022-10-31T05:35:32.902Z,0.95
2022-10-31T05:38:00.134Z,1.27
2022-10-31T05:40:27.729Z,1.45
2022-10-31T05:45:23.302Z,1.10
2022-10-31T05:47:58.002Z,1.00
2022-10-31T05:50:25.959Z,1.35
2022-10-31T05:53:00.820Z,1.27
2022-10-31T05:55:28.062Z,0.95
2022-10-31T05:57:55.413Z,1.25
2022-10-31T06:00:22.922Z,1.27
2022-10-31T06:02:49.713Z,0.85
2022-10-31T06:05:17.532Z,1.60
2022-10-31T06:07:44.060Z,1.42
2022-10-31T06:10:11.791Z,1.00
2022-10-31T06:12:38.783Z,1.20
2022-10-31T06:15:09.739Z,1.35
2022-10-31T06:17:36.710Z,1.25
2022-10-31T06:20:04.205Z,1.20
2022-10-31T06:22:30.799Z,1.25
2022-10-31T06:24:57.491Z,1.40
2022-10-31T06:27:24.321Z,1.58
2022-10-31T06:29:50.917Z,0.95
2022-10-31T06:32:18.114Z,1.27
2022-10-31T06:34:44.936Z,1.05
2022-10-31T06:37:12.794Z,1.35
2022-10-31T06:39:39.533Z,1.33
2022-10-31T06:42:06.084Z,2.05
2022-10-31T06:44:32.671Z,1.10
2022-10-31T06:46:59.423Z,1.63
2022-10-31T06:49:25.988Z,0.80
2022-10-31T06:51:52.534Z,1.33
2022-10-31T06:54:19.095Z,1.17
2022-10-31T06:56:48.982Z,0.82
2022-10-31T06:59:15.875Z,1.63
2022-10-31T07:01:42.677Z,1.15
2022-10-31T07:04:11.229Z,1.10
2022-10-31T07:06:37.838Z,1.38
2022-10-31T07:09:05.156Z,1.55
2022-10-31T07:11:31.714Z,1.00
2022-10-31T07:13:58.285Z,1.30
2022-10-31T07:16:24.851Z,1.05
2022-10-31T07:18:51.487Z,1.33
2022-10-31T07:21:18.010Z,1.58
2022-10-31T07:23:44.562Z,0.95
2022-10-31T07:26:11.305Z,0.80
2022-10-31T07:28:37.850Z,1.00
2022-10-31T07:31:04.433Z,1.10
2022-10-31T07:33:30.972Z,1.17
2022-10-31T07:35:57.546Z,1.25
2022-10-31T07:38:24.098Z,1.20
2022-10-31T07:40:52.865Z,1.10
2022-10-31T07:43:19.996Z,1.38
2022-10-31T07:45:53.660Z,1.92
2022-10-31T07:48:20.420Z,0.80
2022-10-31T07:50:47.285Z,1.20
2022-10-31T07:53:14.654Z,4.65
2022-10-31T07:55:41.633Z,9.50
2022-10-31T07:58:10.309Z,9.35
2022-10-31T08:00:38.223Z,5.65
2022-10-31T08:03:09.819Z,5.65
2022-10-31T08:05:37.161Z,5.07
2022-10-31T08:08:05.126Z,6.82
2022-10-31T08:10:32.588Z,4.88
2022-10-31T08:13:03.900Z,10.00
2022-10-31T08:15:31.208Z,8.68
2022-10-31T08:17:58.057Z,5.70
2022-10-31T08:20:24.942Z,7.28
2022-10-31T08:22:56.418Z,7.15
2022-10-31T08:25:23.678Z,9.43
2022-10-31T08:27:54.410Z,11.52
2022-10-31T08:30:22.150Z,4.90
2022-10-31T08:32:51.597Z,9.25
2022-10-31T08:35:18.127Z,6.38
2022-10-31T08:37:44.970Z,4.20
2022-10-31T08:40:12.235Z,4.47
2022-10-31T08:42:38.791Z,6.78
2022-10-31T08:45:05.694Z,7.25
2022-10-31T08:47:32.329Z,6.65
2022-10-31T08:49:58.922Z,5.55
2022-10-31T08:52:51.156Z,6.25
2022-10-31T08:55:12.850Z,6.55
2022-10-31T08:57:39.451Z,7.53
2022-10-31T09:00:06.701Z,5.68
2022-10-31T09:02:33.226Z,6.10
2022-10-31T09:04:59.743Z,7.10
2022-10-31T09:07:26.508Z,5.95
2022-10-31T09:09:53.050Z,5.50
2022-10-31T09:12:19.641Z,5.97
2022-10-31T09:14:46.192Z,4.45
2022-10-31T09:17:12.717Z,5.03
2022-10-31T09:19:39.830Z,4.18
2022-10-31T09:22:06.368Z,7.45
2022-10-31T09:24:32.911Z,4.32
2022-10-31T09:26:59.617Z,6.22
2022-10-31T09:29:26.150Z,11.93
2022-10-31T09:31:52.735Z,5.03
2022-10-31T09:34:19.280Z,7.30
2022-10-31T09:36:47.009Z,6.28
2022-10-31T09:39:13.703Z,7.88
2022-10-31T09:41:58.223Z,6.15
2022-10-31T09:44:39.622Z,5.82
2022-10-31T09:47:23.214Z,5.45
2022-10-31T09:50:17.008Z,7.47
2022-10-31T09:52:49.070Z,3.60
2022-10-31T09:55:31.588Z,5.50
2022-10-31T09:57:59.633Z,5.30
2022-10-31T10:00:26.393Z,6.65
2022-10-31T10:03:13.170Z,5.72
2022-10-31T10:05:50.539Z,4.80
2022-10-31T10:08:21.631Z,5.60
2022-10-31T10:11:16.077Z,7.90
2022-10-31T10:13:53.051Z,6.75
2022-10-31T10:16:45.686Z,5.82
2022-10-31T10:19:31.734Z,3.08
2022-10-31T10:22:10.601Z,4.00
2022-10-31T10:24:43.062Z,3.80
2022-10-31T10:27:24.275Z,4.00
2022-10-31T10:29:56.617Z,4.18
2022-10-31T10:32:28.831Z,5.32
2022-10-31T10:35:00.588Z,4.50
2022-10-31T10:37:31.884Z,4.70
2022-10-31T10:40:12.655Z,6.88
2022-10-31T10:42:57.963Z,4.15
2022-10-31T10:45:43.215Z,3.85
2022-10-31T10:48:20.332Z,7.35
2022-10-31T10:50:51.658Z,5.28
2022-10-31T10:53:36.463Z,3.28
2022-10-31T10:56:46.556Z,4.13
2022-10-31T10:59:19.349Z,4.32
2022-10-31T11:01:46.587Z,6.43
2022-10-31T11:04:26.588Z,2.92
2022-10-31T11:07:08.439Z,5.18
2022-10-31T11:09:35.831Z,4.18
2022-10-31T11:12:22.183Z,4.38
2022-10-31T11:14:49.974Z,4.80
2022-10-31T11:17:34.155Z,5.47
2022-10-31T11:20:05.335Z,4.70
2022-10-31T11:22:32.279Z,3.75
2022-10-31T11:24:58.864Z,4.68
2022-10-31T11:27:26.652Z,7.53
2022-10-31T11:30:00.536Z,4.93
2022-10-31T11:32:28.242Z,6.78
2022-10-31T11:35:00.507Z,4.45
2022-10-31T11:37:29.430Z,5.72
2022-10-31T11:39:57.779Z,6.60
2022-10-31T11:42:26.848Z,4.13
2022-10-31T11:44:54.411Z,6.28
2022-10-31T11:47:28.112Z,6.30
2022-10-31T11:49:54.960Z,4.63
2022-10-31T11:52:29.787Z,5.20
2022-10-31T11:54:59.949Z,6.88
2022-10-31T11:57:34.816Z,4.82
2022-10-31T12:00:04.518Z,5.32
2022-10-31T12:02:31.307Z,7.78
2022-10-31T12:05:32.134Z,5.65
2022-10-31T12:08:03.451Z,6.25
2022-10-31T12:10:40.883Z,6.03
2022-10-31T12:13:28.394Z,4.72
2022-10-31T12:16:23.153Z,9.15
2022-10-31T12:18:59.889Z,6.38
2022-10-31T12:21:48.000Z,6.50
2022-10-31T12:24:26.371Z,7.57
2022-10-31T12:27:16.405Z,9.05
2022-10-31T12:30:07.449Z,6.15
2022-10-31T12:32:39.672Z,8.05
2022-10-31T12:35:44.864Z,8.68
2022-10-31T12:38:27.245Z,9.85
2022-10-31T12:41:03.770Z,7.22
2022-10-31T12:43:39.215Z,7.10
2022-10-31T12:46:10.920Z,10.63
2022-10-31T12:49:01.862Z,6.68
2022-10-31T12:51:37.207Z,7.20
2022-10-31T12:54:10.619Z,7.90
2022-10-31T12:59:40.061Z,7.03
2022-10-31T13:02:30.660Z,8.93
2022-10-31T13:05:01.246Z,6.28
2022-10-31T13:07:49.443Z,9.10
2022-10-31T13:10:18.682Z,7.75
2022-10-31T13:12:46.890Z,9.50
2022-10-31T13:15:24.183Z,6.75
2022-10-31T13:18:07.041Z,7.70
2022-10-31T13:20:36.086Z,8.60
2022-10-31T13:23:48.496Z,5.85
2022-10-31T13:26:12.921Z,6.57
2022-10-31T13:29:00.839Z,6.45
2022-10-31T13:31:27.383Z,9.10
2022-10-31T13:33:58.786Z,8.23
2022-10-31T13:36:44.836Z,7.68
2022-10-31T13:39:33.480Z,6.10
2022-10-31T13:42:24.649Z,5.80
2022-10-31T13:44:51.186Z,5.90
2022-10-31T13:47:30.419Z,6.72
2022-10-31T13:50:25.310Z,4.15
2022-10-31T13:52:51.935Z,5.78
2022-10-31T13:55:44.502Z,7.00
2022-10-31T13:58:20.223Z,7.28
2022-10-31T14:00:46.804Z,5.25
2022-10-31T14:03:36.248Z,6.35
2022-10-31T14:06:03.671Z,4.85
2022-10-31T14:08:34.382Z,4.97
2022-10-31T14:11:01.070Z,6.20
2022-10-31T14:13:47.566Z,3.90
2022-10-31T14:16:24.450Z,5.85
2022-10-31T14:19:04.834Z,4.55
2022-10-31T14:21:44.520Z,5.22
2022-10-31T14:24:16.623Z,5.03
2022-10-31T14:26:56.320Z,4.15
2022-10-31T14:29:29.000Z,7.15
2022-10-31T14:32:11.811Z,4.18
2022-10-31T14:34:50.556Z,4.53
2022-10-31T14:37:55.385Z,5.03
2022-10-31T14:40:41.186Z,5.80
2022-10-31T14:43:32.487Z,4.47
2022-10-31T14:46:04.483Z,5.85
2022-10-31T14:49:00.338Z,5.68
2022-10-31T14:51:33.523Z,5.22
2022-10-31T14:54:00.761Z,4.53
2022-10-31T14:56:31.756Z,5.20
2022-10-31T14:59:01.116Z,4.13
2022-10-31T15:01:34.503Z,3.63
2022-10-31T15:04:25.260Z,6.63
2022-10-31T15:07:13.107Z,3.88
2022-10-31T15:09:43.618Z,3.67
2022-10-31T15:12:27.159Z,4.75
2022-10-31T15:14:54.071Z,4.70
2022-10-31T15:17:21.215Z,5.57
2022-10-31T15:19:48.043Z,5.15
2022-10-31T15:22:19.259Z,4.78
2022-10-31T15:24:46.220Z,5.25
2022-10-31T15:27:17.842Z,4.70
2022-10-31T15:29:52.754Z,4.43
2022-10-31T15:32:27.501Z,5.78
2022-10-31T15:34:55.489Z,3.72
2022-10-31T15:37:23.403Z,3.35
2022-10-31T15:39:50.302Z,3.72
2022-10-31T15:42:23.277Z,3.88
2022-10-31T15:44:55.012Z,3.63
2022-10-31T15:47:23.579Z,4.97
2022-10-31T15:49:55.082Z,4.50
2022-10-31T15:52:32.066Z,4.18
2022-10-31T15:55:04.150Z,4.55
2022-10-31T15:57:31.379Z,5.28
2022-10-31T15:59:58.278Z,4.85
2022-10-31T16:02:28.151Z,4.78
2022-10-31T16:05:00.230Z,4.97
2022-10-31T16:07:26.789Z,4.82
2022-10-31T16:09:54.839Z,5.72
2022-10-31T16:12:22.995Z,5.13
2022-10-31T16:14:51.022Z,5.65
2022-10-31T16:17:21.990Z,4.28
2022-10-31T16:19:56.213Z,4.50
2022-10-31T16:22:29.284Z,5.07
2022-10-31T16:25:07.141Z,4.65
2022-10-31T16:27:35.791Z,4.35
2022-10-31T16:30:05.409Z,3.45
2022-10-31T16:32:36.207Z,4.00
2022-10-31T16:35:11.378Z,4.97
2022-10-31T16:37:41.610Z,3.63
2022-10-31T16:40:11.109Z,4.75
2022-10-31T16:42:37.711Z,4.45
2022-10-31T16:45:06.186Z,5.82
2022-10-31T16:47:32.768Z,4.53
2022-10-31T16:50:01.003Z,4.88
2022-10-31T16:52:27.734Z,6.40
2022-10-31T16:54:55.186Z,5.00
2022-10-31T16:57:29.279Z,4.68
2022-10-31T16:59:55.855Z,5.53
2022-10-31T17:02:22.720Z,6.35
2022-10-31T17:04:52.161Z,5.25
2022-10-31T17:07:22.227Z,4.18
2022-10-31T17:09:48.765Z,3.97
2022-10-31T17:12:19.703Z,4.13
2022-10-31T17:14:49.125Z,4.57
2022-10-31T17:17:15.686Z,4.43
2022-10-31T17:19:42.207Z,5.18
2022-10-31T17:22:13.675Z,3.50
2022-10-31T17:24:40.224Z,3.33
2022-10-31T17:27:07.160Z,6.32
2022-10-31T17:29:33.850Z,4.32
2022-10-31T17:32:00.432Z,5.88
2022-10-31T17:34:26.997Z,3.83
2022-10-31T17:36:53.599Z,5.85
2022-10-31T17:39:20.142Z,5.38
2022-10-31T17:41:46.741Z,4.05
2022-10-31T17:44:13.278Z,4.57
2022-10-31T17:46:39.820Z,4.28
2022-10-31T17:49:08.486Z,4.45
2022-10-31T17:51:35.420Z,3.47
2022-10-31T17:54:01.970Z,4.57
2022-10-31T17:56:28.515Z,4.43
2022-10-31T17:58:57.230Z,4.07
2022-10-31T18:01:24.266Z,5.70
2022-10-31T18:03:50.862Z,4.30
2022-10-31T18:06:17.472Z,4.82
2022-10-31T18:08:44.438Z,4.88
2022-10-31T18:11:16.820Z,3.53
2022-10-31T18:16:12.504Z,4.90
2022-10-31T18:18:39.223Z,4.03
2022-10-31T18:21:06.035Z,4.28
2022-10-31T18:23:32.565Z,4.78
2022-10-31T18:25:59.142Z,5.28
2022-10-31T18:28:25.724Z,5.28
2022-10-31T18:30:52.271Z,4.43
2022-10-31T18:33:18.829Z,3.97
2022-10-31T18:35:45.431Z,3.67
2022-10-31T18:38:12.339Z,3.83
2022-10-31T18:40:39.349Z,5.07
2022-10-31T18:43:06.173Z,3.10
2022-10-31T18:45:46.049Z,7.03
2022-10-31T18:48:14.627Z,5.50
2022-10-31T18:50:41.394Z,6.32
2022-10-31T18:53:08.087Z,5.75
2022-10-31T18:55:38.439Z,6.40
2022-10-31T18:58:05.002Z,6.75
2022-10-31T19:00:31.534Z,6.53
2022-10-31T19:02:58.172Z,6.78
2022-10-31T19:05:24.862Z,6.15
2022-10-31T19:07:51.443Z,8.68
2022-10-31T19:10:17.998Z,11.48
2022-10-31T19:12:44.586Z,13.43
2022-10-31T19:15:11.204Z,11.38
2022-10-31T19:17:37.746Z,8.25
2022-10-31T19:20:04.681Z,9.70
2022-10-31T19:22:32.134Z,7.43
2022-10-31T19:24:58.683Z,8.40
2022-10-31T19:27:28.052Z,8.65
2022-10-31T19:29:54.639Z,11.52
2022-10-31T19:32:21.178Z,10.57
2022-10-31T19:34:47.738Z,11.77
2022-10-31T19:37:14.291Z,12.05
2022-10-31T19:39:44.172Z,12.60
2022-10-31T19:42:11.897Z,10.60
2022-10-31T19:44:38.478Z,13.00
2022-10-31T19:47:05.195Z,10.57
2022-10-31T19:49:31.779Z,9.65
2022-10-31T19:51:58.366Z,11.73
2022-10-31T19:54:24.906Z,11.98
2022-10-31T19:56:51.443Z,8.18
2022-10-31T19:59:18.047Z,10.75
2022-10-31T20:01:44.656Z,8.38
2022-10-31T20:04:11.411Z,10.57
2022-10-31T20:06:40.291Z,10.80
2022-10-31T20:09:09.742Z,10.63
2022-10-31T20:11:37.841Z,11.50
2022-10-31T20:14:04.380Z,10.38
2022-10-31T20:16:31.033Z,9.77
2022-10-31T20:18:59.548Z,7.68
2022-10-31T20:21:28.586Z,13.88
2022-10-31T20:24:00.637Z,11.18
2022-10-31T20:26:27.998Z,10.60
2022-10-31T20:28:58.322Z,9.75
2022-10-31T20:31:27.301Z,12.68
2022-10-31T20:33:54.299Z,11.38
2022-10-31T20:36:23.482Z,10.55
2022-10-31T20:38:51.630Z,8.77
2022-10-31T20:41:18.368Z,8.43
2022-10-31T20:43:45.317Z,10.00
2022-10-31T20:46:19.837Z,11.52
2022-10-31T20:48:46.784Z,12.68
2022-10-31T20:51:18.560Z,11.27
2022-10-31T20:53:45.600Z,10.43
2022-10-31T20:56:17.338Z,10.80
2022-10-31T20:58:44.574Z,8.90
2022-10-31T21:01:16.818Z,8.38
2022-10-31T21:03:43.842Z,8.63
2022-10-31T21:06:10.882Z,8.55
2022-10-31T21:08:39.127Z,8.15
2022-10-31T21:11:08.592Z,9.02
2022-10-31T21:13:40.532Z,8.68
2022-10-31T21:16:16.207Z,6.07
2022-10-31T21:18:43.789Z,8.75
2022-10-31T21:21:12.642Z,12.68
2022-10-31T21:23:39.430Z,7.63
2022-10-31T21:28:44.846Z,5.97
2022-10-31T21:31:15.456Z,7.53
2022-10-31T21:33:42.793Z,7.80
2022-10-31T21:36:09.685Z,9.27
2022-10-31T21:38:36.572Z,9.05
2022-10-31T21:41:09.801Z,8.93
2022-10-31T21:43:37.695Z,6.35
2022-10-31T21:46:06.306Z,7.88
2022-10-31T21:48:33.252Z,6.30
2022-10-31T21:51:06.482Z,10.52
2022-10-31T21:53:51.294Z,6.47
2022-10-31T21:56:17.827Z,7.00
2022-10-31T21:58:44.386Z,7.25
2022-10-31T22:01:11.040Z,8.40
2022-10-31T22:03:38.697Z,7.32
2022-10-31T22:06:06.451Z,7.55
2022-10-31T22:08:33.351Z,6.95
2022-10-31T22:11:05.768Z,8.52
2022-10-31T22:13:33.089Z,11.05
2022-10-31T22:16:04.201Z,9.02
2022-10-31T22:18:30.797Z,6.75
2022-10-31T22:21:24.039Z,6.57
2022-10-31T22:23:52.187Z,8.30
2022-10-31T22:26:19.115Z,7.68
2022-10-31T22:28:47.585Z,7.03
2022-10-31T22:31:19.158Z,7.63
2022-10-31T22:33:46.636Z,8.93
2022-10-31T22:36:18.286Z,5.55
2022-10-31T22:38:45.489Z,6.20
2022-10-31T22:41:17.866Z,7.45
2022-10-31T22:43:44.907Z,5.10
2022-10-31T22:46:16.571Z,8.35
2022-10-31T22:48:45.743Z,5.57
2022-10-31T22:51:17.002Z,7.93
2022-10-31T22:53:43.802Z,7.55
2022-10-31T22:56:14.532Z,7.78
2022-10-31T22:58:41.287Z,7.15
2022-10-31T23:01:27.625Z,5.55
2022-10-31T23:03:54.289Z,6.60
2022-10-31T23:06:22.848Z,6.13
2022-10-31T23:08:50.122Z,7.78
2022-10-31T23:11:28.203Z,6.13
2022-10-31T23:14:16.289Z,7.90
2022-10-31T23:16:47.803Z,7.03
2022-10-31T23:19:19.935Z,6.07
2022-10-31T23:22:00.024Z,6.93
2022-10-31T23:24:31.871Z,7.38
2022-10-31T23:27:10.855Z,5.78
2022-10-31T23:29:51.766Z,7.45
2022-10-31T23:32:28.013Z,6.68
2022-10-31T23:34:56.366Z,8.63
2022-10-31T23:37:27.936Z,9.32
2022-10-31T23:39:54.783Z,5.88
2022-10-31T23:42:22.025Z,5.82
2022-10-31T23:44:48.627Z,6.43
2022-10-31T23:47:16.159Z,6.07
2022-10-31T23:49:42.749Z,7.75
2022-10-31T23:52:09.736Z,7.53
2022-10-31T23:54:36.410Z,7.15
2022-10-31T23:57:03.406Z,5.80
2022-10-31T23:59:30.262Z,5.93
